• Join FlightAware (Why Join?)
  • Login
  • US Flag 
07:57PM EST


 

Airport Tracker/Info


-or-


 

Live Flight TrackerFlight Track Log ✈ N839CA ✈ 09-May-2013 ✈ KBUF - KEWR

Flight Track Log - Related Links

Times and Time Zones

All times are in EDT time to prevent confusion due to time zone crossing. See the N839CA flight status page for this flight to view local times or setup timezone preferences in your user account.

Time Position Orientation Groundspeed Altitude Reporting Facility
EDT Latitude Longitude Course Direction KTS MPH feet Rate Location/Type
07:31PM 42.9333 -78.7333 180° South 129 148 1,200  Level Buffalo TRACON
07:32PM 42.9000 -78.7333 180° South 147 169 2,300 1,080 Climbing Buffalo TRACON
07:33PM 42.8500 -78.7167 166° South 167 192 3,400 1,080 Climbing Buffalo TRACON
07:35PM 42.7861 -78.6650 149° Southeast 183 211 5,300 1,080 Climbing Cleveland Center
07:36PM 42.7706 -78.6033 109° East 183 211 6,400 1,200 Climbing Cleveland Center
07:37PM 42.7817 -78.5322 78° East 173 199 7,700 1,260 Climbing Cleveland Center
07:38PM 42.7886 -78.4556 83° East 184 212 9,000 1,140 Climbing Cleveland Center
07:39PM 42.7917 -78.3878 86° East 193 222 10,000 1,020 Climbing Cleveland Center
07:40PM 42.7986 -78.3167 82° East 193 222 11,100 960 Climbing Cleveland Center
07:41PM 42.8033 -78.2458 85° East 193 222 12,000 900 Climbing Cleveland Center
07:42PM 42.8081 -78.1692 85° East 198 228 12,900 960 Climbing Cleveland Center
07:43PM 42.8128 -78.0897 85° East 198 228 14,000 960 Climbing Cleveland Center
07:44PM 42.8172 -78.0158 85° East 198 228 14,900 480 Climbing Cleveland Center
07:45PM 42.8050 -77.9317 101° East 203 234 15,000  Climbing Cleveland Center
07:46PM 42.7778 -77.8392 112° Southeast 229 264 15,000  Level Cleveland Center
07:47PM 42.7522 -77.7331 108° East 253 291 15,000  Level Cleveland Center
07:48PM 42.7247 -77.6353 111° Southeast 273 314 15,000  Level Cleveland Center
07:50PM 42.6822 -77.4656 109° East 275 316 15,000  Level New York Center
07:51PM 42.6519 -77.3694 113° Southeast 275 316 15,000  Level New York Center
07:52PM 42.6264 -77.2681 109° East 280 322 15,000  Level New York Center
07:53PM 42.5964 -77.1667 112° Southeast 280 322 15,000  Level New York Center
07:54PM 42.5706 -77.0656 109° East 280 322 15,000  Level New York Center
07:55PM 42.5425 -76.9669 111° Southeast 280 322 15,000  Level New York Center
07:56PM 42.5122 -76.8658 112° Southeast 280 322 15,100  Climbing New York Center
07:57PM 42.4861 -76.7650 109° East 280 322 15,100 -60 Level New York Center
07:58PM 42.4558 -76.6639 112° Southeast 280 322 15,000  Descending New York Center
07:59PM 42.4297 -76.5631 109° East 280 322 15,100 60 Climbing New York Center
07:59PM 42.4128 -76.5097 113° Southeast 280 322 15,100 -120 Level Boston Center
08:00PM 42.3831 -76.4094 112° Southeast 291 335 15,000 -60 Descending Boston Center
08:01PM 42.3553 -76.3092 111° Southeast 291 335 15,000  Level Boston Center
08:02PM 42.3256 -76.1978 110° East 291 335 15,000  Level Boston Center
08:03PM 42.2936 -76.0978 113° Southeast 296 341 15,000  Level Boston Center
08:04PM 42.2692 -76.0092 110° East 284 327 15,000  Level Boston Center
08:05PM 42.2389 -75.9092 112° Southeast 284 327 15,000  Level Boston Center
08:06PM 42.2106 -75.8097 111° Southeast 284 327 15,000  Level Boston Center
08:07PM 42.1767 -75.6900 111° Southeast 279 321 15,000  Level Boston Center
08:08PM 42.1481 -75.5933 112° Southeast 279 321 15,100  Climbing Boston Center
08:09PM 42.1194 -75.4939 111° Southeast 279 321 15,000 -60 Descending Boston Center
08:10PM 42.0889 -75.3944 112° Southeast 279 321 15,000  Level Boston Center
08:11PM 42.0600 -75.2953 111° Southeast 279 321 15,100  Climbing Boston Center
08:12PM 42.0228 -75.2014 118° Southeast 279 321 15,000 -60 Descending Boston Center
08:13PM 41.9836 -75.1019 118° Southeast 279 321 15,000  Level Boston Center
08:14PM 41.9483 -75.0056 116° Southeast 284 327 15,000  Level Boston Center
08:15PM 41.9108 -74.9119 118° Southeast 284 327 15,000 -240 Level Boston Center
08:16PM 41.8625 -74.8319 129° Southeast 280 322 14,600 -1,320 Descending Boston Center
08:17PM 41.7900 -74.8069 166° South 280 322 12,400 -2,400 Descending Boston Center
08:18PM 41.7117 -74.7622 157° South 285 328 9,800 -2,220 Descending Boston Center
08:19PM 41.6500 -74.7267 157° South 285 328 8,000 -1,800 Descending Boston Center
08:20PM 41.5758 -74.6794 155° Southeast 274 315 6,300 -1,020 Descending Boston Center
08:21PM 41.5183 -74.6414 154° Southeast 268 308 6,000 -120 Descending Boston Center
08:22PM 41.4867 -74.5517 115° Southeast 237 273 6,100  Climbing Boston Center
08:24PM 41.3667 -74.5667 185° South 253 291 6,000  Descending New York TRACON
08:25PM 41.3000 -74.5333 159° South 262 302 6,100  Climbing New York TRACON
08:26PM 41.2333 -74.4833 151° Southeast 256 295 6,000 -60 Descending New York TRACON
08:27PM 41.1833 -74.5000 194° South 252 290 6,000  Level New York TRACON
08:28PM 41.1333 -74.4333 135° Southeast 248 285 6,000 -420 Level New York TRACON
08:29PM 41.0833 -74.3667 135° Southeast 251 289 5,200 -540 Descending New York TRACON
08:30PM 41.0500 -74.3000 124° Southeast 230 265 5,000 -300 Descending New York TRACON
08:31PM 41.0167 -74.2167 118° Southeast 216 249 4,600 -540 Descending New York TRACON
08:32PM 40.9833 -74.1667 131° Southeast 216 249 4,000 -600 Descending New York TRACON
08:33PM 40.9333 -74.1167 143° Southeast 198 228 3,500 -480 Descending New York TRACON
08:34PM 40.9000 -74.0833 143° Southeast 184 212 3,000 -300 Descending New York TRACON
08:35PM 40.8500 -74.0667 166° South 176 203 2,900 -300 Descending New York TRACON
08:36PM 40.8000 -74.1000 207° Southwest 163 188 2,400 -720 Descending New York TRACON
08:37PM 40.7667 -74.1167 201° Southwest 162 186 1,500 -840 Descending New York TRACON
08:38PM 40.7333 -74.1333 201° Southwest 129 148 800 -720 Descending New York TRACON